ADDS METAR Data INFO
IDs: Format: Raw Decoded Include TAF

Data at: 0100 UTC 22 Oct 2017

KBLM 220056Z AUTO 20005KT 10SM CLR 16/10 A3038 RMK AO2 SLP291 T01560100
KBLM 212356Z AUTO 18005KT 10SM CLR 16/11 A3037 RMK AO2 SLP289 6//// T01560106 10244 20156 51013
KBLM 212256Z AUTO 17005KT 10SM CLR 17/10 A3036 RMK AO2 SLP285 T01720100
KBLM 212156Z AUTO 15004KT 10SM CLR 19/08 A3034 RMK AO2 SLP280 T01890083
KBLM 212056Z AUTO 15005KT 10SM CLR 22/05 A3033 RMK AO2 SLP274 6//// T02170050
KBLM 211956Z AUTO 16006KT 10SM CLR 22/02 A3033 RMK AO2 SLP274 T02220022 TSNO
KBLM 211856Z AUTO 10SM CLR 23/04 RMK AO2 SLPNO T02330039 $
KBLM 211756Z AUTO 14007KT 10SM CLR 24/04 A3033 RMK AO2 SLP274 6//// T02440044 10256 20078 58013
KBLM 211656Z AUTO 00000KT 10SM CLR 24/04 A3034 RMK AO2 SLP278 T02440039
KBLM 211556Z AUTO 00000KT 10SM CLR 23/03 A3035 RMK AO2 SLP282 T02330033
KBLM 211456Z AUTO 00000KT 10SM CLR 21/07 A3037 RMK AO2 SLP287 6//// T02060072 51016
KBLM 211356Z AUTO 29003KT 10SM CLR 17/08 A3036 RMK AO2 SLP286 T01670078
KBLM 211256Z AUTO 30003KT 10SM CLR 12/07 A3035 RMK AO2 SLP282 T01220067
KBLM 211156Z AUTO 28005KT 10SM CLR 08/04 A3032 RMK AO2 SLP272 6//// 7//// T00780044 10117 20072 53015
KBLM 211056Z AUTO 28004KT 10SM CLR 08/04 A3030 RMK AO2 SLP264 T00830039
KBLM 210956Z AUTO 28003KT 10SM CLR 08/04 A3029 RMK AO2 SLP261 T00830044
KBLM 210856Z AUTO 27003KT 10SM CLR 10/04 A3027 RMK AO2 SLP256 T01000039
KBLM 210756Z AUTO 29007KT 10SM CLR 08/04 A3026 RMK AO2 SLP253 T00830044
KBLM 210656Z AUTO 33003KT 10SM CLR 11/04 RMK AO2 SLPNO T01060044 $
KBLM 210556Z AUTO 29005KT 10SM CLR 09/05 A3025 RMK AO2 SLP249 T00940050 10156 20094 52010
KBLM 210456Z AUTO 22003KT 10SM CLR 12/04 A3024 RMK AO2 SLP246 T01170044 402280100
KBLM 210356Z AUTO 31003KT 10SM CLR 12/05 A3023 RMK AO2 SLP243 T01220050
KBLM 210256Z AUTO 30005KT 10SM CLR 13/05 A3023 RMK AO2 SLP239 T01280050 53017
KBLM 210156Z AUTO 26005KT 10SM CLR 13/05 A3021 RMK AO2 SLP234 T01330050
KBLM 210056Z AUTO 21003KT 10SM CLR 16/04 A3019 RMK AO2 SLP227 T01560044
KBLM 202356Z AUTO 29005KT 10SM CLR 14/05 A3017 RMK AO2 SLP223 6//// T01440050 10228 20144
KBLM 202256Z AUTO 27003KT 10SM CLR 17/04 RMK AO2 SLPNO T01720044 $
KBLM 202156Z AUTO 27005KT 10SM CLR 19/05 A3014 RMK AO2 SLP210 T01890050
KBLM 202056Z AUTO 26008KT 10SM CLR 22/03 A3013 RMK AO2 SLP207 T02170028 55004
KBLM 201956Z AUTO 29013G17KT 10SM CLR 23/02 A3013 RMK AO2 SLP206 T02280017
KBLM 201856Z AUTO 30011KT 10SM CLR 22/01 A3013 RMK AO2 SLP206 T02220011
KBLM 201756Z AUTO 29010KT 10SM CLR 22/01 A3014 RMK AO2 SLP210 6//// T02220011 10222 20117 58020
KBLM 201656Z AUTO 29011G18KT 10SM CLR 21/03 A3016 RMK AO2 SLP218 T02110028
KBLM 201556Z AUTO 31014KT 10SM CLR 20/03 A3018 RMK AO2 SLP225 T02000033
KBLM 201456Z AUTO 33012KT 10SM CLR 19/05 A3020 RMK AO2 SLP231 6//// T01890050 50007
KBLM 201356Z AUTO 30008KT 10SM CLR 18/07 A3020 RMK AO2 SLP231 T01780067